sensor_id;sensor_type;location;lat;lon;timestamp;P1;durP1;ratioP1;P2;durP2;ratioP2
23720;SDS011;42950;52.134;5.578;2023-08-01T00:01:23;9.65;;;3.20;;
23720;SDS011;42950;52.134;5.578;2023-08-01T00:03:48;3.55;;;2.92;;
23720;SDS011;42950;52.134;5.578;2023-08-01T00:06:14;5.13;;;3.28;;
23720;SDS011;42950;52.134;5.578;2023-08-01T00:08:40;5.57;;;3.22;;
23720;SDS011;42950;52.134;5.578;2023-08-01T00:11:05;5.43;;;3.78;;
23720;SDS011;42950;52.134;5.578;2023-08-01T00:13:31;4.20;;;3.80;;
23720;SDS011;42950;52.134;5.578;2023-08-01T00:15:56;5.32;;;3.60;;
23720;SDS011;42950;52.134;5.578;2023-08-01T00:18:22;4.80;;;3.40;;
23720;SDS011;42950;52.134;5.578;2023-08-01T00:20:47;6.43;;;3.63;;
23720;SDS011;42950;52.134;5.578;2023-08-01T00:23:13;4.70;;;3.80;;
23720;SDS011;42950;52.134;5.578;2023-08-01T00:25:40;6.10;;;3.55;;
23720;SDS011;42950;52.134;5.578;2023-08-01T00:28:06;7.15;;;3.90;;
23720;SDS011;42950;52.134;5.578;2023-08-01T00:30:31;6.97;;;4.20;;
23720;SDS011;42950;52.134;5.578;2023-08-01T00:32:59;10.68;;;4.22;;
23720;SDS011;42950;52.134;5.578;2023-08-01T00:35:24;7.30;;;4.18;;
23720;SDS011;42950;52.134;5.578;2023-08-01T00:37:50;6.85;;;4.13;;
23720;SDS011;42950;52.134;5.578;2023-08-01T00:40:16;6.65;;;4.38;;
23720;SDS011;42950;52.134;5.578;2023-08-01T00:42:42;7.35;;;3.88;;
23720;SDS011;42950;52.134;5.578;2023-08-01T00:45:09;8.48;;;4.50;;
23720;SDS011;42950;52.134;5.578;2023-08-01T00:47:35;8.00;;;3.88;;
23720;SDS011;42950;52.134;5.578;2023-08-01T00:50:01;8.60;;;4.68;;
23720;SDS011;42950;52.134;5.578;2023-08-01T00:52:27;7.75;;;4.40;;
23720;SDS011;42950;52.134;5.578;2023-08-01T00:54:54;8.15;;;4.25;;
23720;SDS011;42950;52.134;5.578;2023-08-01T00:57:20;5.80;;;4.65;;
23720;SDS011;42950;52.134;5.578;2023-08-01T00:59:52;6.35;;;4.43;;
23720;SDS011;42950;52.134;5.578;2023-08-01T01:02:17;8.50;;;5.03;;
23720;SDS011;42950;52.134;5.578;2023-08-01T01:04:43;9.30;;;4.57;;
23720;SDS011;42950;52.134;5.578;2023-08-01T01:07:08;7.57;;;4.30;;
23720;SDS011;42950;52.134;5.578;2023-08-01T01:09:34;7.97;;;4.40;;
23720;SDS011;42950;52.134;5.578;2023-08-01T01:12:00;7.13;;;4.28;;
23720;SDS011;42950;52.134;5.578;2023-08-01T01:14:26;7.75;;;4.22;;
23720;SDS011;42950;52.134;5.578;2023-08-01T01:16:52;6.97;;;4.38;;
23720;SDS011;42950;52.134;5.578;2023-08-01T01:19:18;7.03;;;4.38;;
23720;SDS011;42950;52.134;5.578;2023-08-01T01:21:43;8.40;;;4.85;;
23720;SDS011;42950;52.134;5.578;2023-08-01T01:24:11;6.40;;;4.40;;
23720;SDS011;42950;52.134;5.578;2023-08-01T01:26:39;7.38;;;4.38;;
23720;SDS011;42950;52.134;5.578;2023-08-01T01:29:06;6.15;;;4.82;;
23720;SDS011;42950;52.134;5.578;2023-08-01T01:31:35;8.77;;;5.03;;
23720;SDS011;42950;52.134;5.578;2023-08-01T01:34:03;8.93;;;6.00;;
23720;SDS011;42950;52.134;5.578;2023-08-01T01:36:29;11.82;;;5.60;;
23720;SDS011;42950;52.134;5.578;2023-08-01T01:38:55;12.40;;;5.68;;
23720;SDS011;42950;52.134;5.578;2023-08-01T01:41:21;9.20;;;5.22;;
23720;SDS011;42950;52.134;5.578;2023-08-01T01:43:47;12.45;;;5.72;;
23720;SDS011;42950;52.134;5.578;2023-08-01T01:46:13;10.13;;;6.13;;
23720;SDS011;42950;52.134;5.578;2023-08-01T01:48:38;6.72;;;5.25;;
23720;SDS011;42950;52.134;5.578;2023-08-01T01:51:04;9.05;;;5.90;;
23720;SDS011;42950;52.134;5.578;2023-08-01T01:53:30;10.85;;;6.10;;
23720;SDS011;42950;52.134;5.578;2023-08-01T01:55:55;16.55;;;6.95;;
23720;SDS011;42950;52.134;5.578;2023-08-01T01:58:21;12.02;;;6.53;;
23720;SDS011;42950;52.134;5.578;2023-08-01T02:00:48;8.60;;;6.65;;
23720;SDS011;42950;52.134;5.578;2023-08-01T02:03:15;12.63;;;6.93;;
23720;SDS011;42950;52.134;5.578;2023-08-01T02:05:40;13.02;;;6.88;;
23720;SDS011;42950;52.134;5.578;2023-08-01T02:08:07;9.00;;;6.50;;
23720;SDS011;42950;52.134;5.578;2023-08-01T02:10:33;13.90;;;7.63;;
23720;SDS011;42950;52.134;5.578;2023-08-01T02:12:58;13.02;;;8.32;;
23720;SDS011;42950;52.134;5.578;2023-08-01T02:15:24;12.52;;;7.80;;
23720;SDS011;42950;52.134;5.578;2023-08-01T02:17:51;15.48;;;8.35;;
23720;SDS011;42950;52.134;5.578;2023-08-01T02:20:17;10.73;;;7.72;;
23720;SDS011;42950;52.134;5.578;2023-08-01T02:22:42;14.13;;;8.68;;
23720;SDS011;42950;52.134;5.578;2023-08-01T02:25:11;12.85;;;7.78;;
23720;SDS011;42950;52.134;5.578;2023-08-01T02:27:37;15.43;;;8.75;;
23720;SDS011;42950;52.134;5.578;2023-08-01T02:30:03;14.05;;;9.30;;
23720;SDS011;42950;52.134;5.578;2023-08-01T02:32:30;18.17;;;9.43;;
23720;SDS011;42950;52.134;5.578;2023-08-01T02:34:56;17.17;;;9.60;;
23720;SDS011;42950;52.134;5.578;2023-08-01T02:37:21;13.80;;;9.27;;
23720;SDS011;42950;52.134;5.578;2023-08-01T02:39:47;20.67;;;9.48;;
23720;SDS011;42950;52.134;5.578;2023-08-01T02:42:14;16.77;;;9.57;;
23720;SDS011;42950;52.134;5.578;2023-08-01T02:44:39;16.98;;;9.40;;
23720;SDS011;42950;52.134;5.578;2023-08-01T02:47:06;16.30;;;9.27;;
23720;SDS011;42950;52.134;5.578;2023-08-01T02:49:32;17.33;;;9.77;;
23720;SDS011;42950;52.134;5.578;2023-08-01T02:51:58;14.70;;;9.48;;
23720;SDS011;42950;52.134;5.578;2023-08-01T02:54:24;18.30;;;9.93;;
23720;SDS011;42950;52.134;5.578;2023-08-01T02:56:50;17.08;;;8.90;;
23720;SDS011;42950;52.134;5.578;2023-08-01T02:59:16;19.33;;;9.35;;
23720;SDS011;42950;52.134;5.578;2023-08-01T03:01:44;25.33;;;10.05;;
23720;SDS011;42950;52.134;5.578;2023-08-01T03:04:10;13.93;;;8.73;;
23720;SDS011;42950;52.134;5.578;2023-08-01T03:06:37;17.85;;;8.85;;
23720;SDS011;42950;52.134;5.578;2023-08-01T03:09:02;20.98;;;9.80;;
23720;SDS011;42950;52.134;5.578;2023-08-01T03:11:31;18.48;;;9.25;;
23720;SDS011;42950;52.134;5.578;2023-08-01T03:13:56;15.45;;;9.60;;
23720;SDS011;42950;52.134;5.578;2023-08-01T03:16:22;20.85;;;8.90;;
23720;SDS011;42950;52.134;5.578;2023-08-01T03:18:49;17.25;;;7.72;;
23720;SDS011;42950;52.134;5.578;2023-08-01T03:21:14;15.73;;;6.57;;
23720;SDS011;42950;52.134;5.578;2023-08-01T03:23:41;10.43;;;6.38;;
23720;SDS011;42950;52.134;5.578;2023-08-01T03:26:07;10.35;;;5.93;;
23720;SDS011;42950;52.134;5.578;2023-08-01T03:28:32;13.30;;;5.57;;
23720;SDS011;42950;52.134;5.578;2023-08-01T03:30:58;11.75;;;5.53;;
23720;SDS011;42950;52.134;5.578;2023-08-01T03:33:24;11.07;;;5.28;;
23720;SDS011;42950;52.134;5.578;2023-08-01T03:35:49;11.20;;;5.20;;
23720;SDS011;42950;52.134;5.578;2023-08-01T03:38:15;8.70;;;5.20;;
23720;SDS011;42950;52.134;5.578;2023-08-01T03:40:40;11.70;;;5.10;;
23720;SDS011;42950;52.134;5.578;2023-08-01T03:43:06;8.95;;;4.95;;
23720;SDS011;42950;52.134;5.578;2023-08-01T03:45:35;12.93;;;5.40;;
23720;SDS011;42950;52.134;5.578;2023-08-01T03:48:01;17.20;;;5.90;;
23720;SDS011;42950;52.134;5.578;2023-08-01T03:50:26;7.18;;;4.80;;
23720;SDS011;42950;52.134;5.578;2023-08-01T03:52:53;8.57;;;4.72;;
23720;SDS011;42950;52.134;5.578;2023-08-01T03:55:18;10.23;;;4.80;;
23720;SDS011;42950;52.134;5.578;2023-08-01T03:57:44;6.00;;;4.80;;
23720;SDS011;42950;52.134;5.578;2023-08-01T04:00:10;11.73;;;5.57;;
23720;SDS011;42950;52.134;5.578;2023-08-01T04:02:41;10.15;;;5.63;;
23720;SDS011;42950;52.134;5.578;2023-08-01T04:05:07;15.07;;;6.43;;
23720;SDS011;42950;52.134;5.578;2023-08-01T04:07:36;12.10;;;5.95;;
23720;SDS011;42950;52.134;5.578;2023-08-01T04:10:03;10.77;;;6.15;;
23720;SDS011;42950;52.134;5.578;2023-08-01T04:12:32;15.88;;;6.95;;
23720;SDS011;42950;52.134;5.578;2023-08-01T04:14:58;13.65;;;6.13;;
23720;SDS011;42950;52.134;5.578;2023-08-01T04:17:24;11.15;;;6.20;;
23720;SDS011;42950;52.134;5.578;2023-08-01T04:19:50;12.15;;;6.80;;
23720;SDS011;42950;52.134;5.578;2023-08-01T04:22:16;11.73;;;6.00;;
23720;SDS011;42950;52.134;5.578;2023-08-01T04:24:41;14.00;;;6.13;;
23720;SDS011;42950;52.134;5.578;2023-08-01T04:27:07;11.30;;;5.80;;
23720;SDS011;42950;52.134;5.578;2023-08-01T04:29:34;12.73;;;5.80;;
23720;SDS011;42950;52.134;5.578;2023-08-01T04:32:00;14.40;;;6.43;;
23720;SDS011;42950;52.134;5.578;2023-08-01T04:34:25;14.35;;;6.05;;
23720;SDS011;42950;52.134;5.578;2023-08-01T04:36:52;13.10;;;6.47;;
23720;SDS011;42950;52.134;5.578;2023-08-01T04:39:18;14.35;;;5.82;;
23720;SDS011;42950;52.134;5.578;2023-08-01T04:41:43;15.45;;;5.95;;
23720;SDS011;42950;52.134;5.578;2023-08-01T04:44:09;15.18;;;6.07;;
23720;SDS011;42950;52.134;5.578;2023-08-01T04:46:34;17.38;;;6.18;;
23720;SDS011;42950;52.134;5.578;2023-08-01T04:49:01;15.60;;;6.07;;
23720;SDS011;42950;52.134;5.578;2023-08-01T04:51:27;16.33;;;5.95;;
23720;SDS011;42950;52.134;5.578;2023-08-01T04:53:53;10.35;;;5.68;;
23720;SDS011;42950;52.134;5.578;2023-08-01T04:56:18;13.20;;;6.22;;
23720;SDS011;42950;52.134;5.578;2023-08-01T04:58:44;15.27;;;5.85;;
23720;SDS011;42950;52.134;5.578;2023-08-01T05:01:09;12.18;;;6.00;;
23720;SDS011;42950;52.134;5.578;2023-08-01T05:03:35;14.35;;;6.32;;
23720;SDS011;42950;52.134;5.578;2023-08-01T05:06:01;11.07;;;6.07;;
23720;SDS011;42950;52.134;5.578;2023-08-01T05:08:26;14.93;;;7.07;;
23720;SDS011;42950;52.134;5.578;2023-08-01T05:10:52;14.32;;;6.50;;
23720;SDS011;42950;52.134;5.578;2023-08-01T05:13:18;15.27;;;5.85;;
23720;SDS011;42950;52.134;5.578;2023-08-01T05:15:46;17.23;;;6.25;;
23720;SDS011;42950;52.134;5.578;2023-08-01T05:18:13;15.18;;;6.43;;
23720;SDS011;42950;52.134;5.578;2023-08-01T05:20:39;13.73;;;5.97;;
23720;SDS011;42950;52.134;5.578;2023-08-01T05:23:05;15.63;;;6.40;;
23720;SDS011;42950;52.134;5.578;2023-08-01T05:25:30;13.50;;;5.95;;
23720;SDS011;42950;52.134;5.578;2023-08-01T05:27:56;14.80;;;5.93;;
23720;SDS011;42950;52.134;5.578;2023-08-01T05:30:21;20.75;;;6.95;;
23720;SDS011;42950;52.134;5.578;2023-08-01T05:32:47;17.73;;;6.72;;
23720;SDS011;42950;52.134;5.578;2023-08-01T05:35:13;15.73;;;6.38;;
23720;SDS011;42950;52.134;5.578;2023-08-01T05:37:39;17.88;;;6.63;;
23720;SDS011;42950;52.134;5.578;2023-08-01T05:40:04;17.27;;;6.07;;
23720;SDS011;42950;52.134;5.578;2023-08-01T05:42:30;18.35;;;6.47;;
23720;SDS011;42950;52.134;5.578;2023-08-01T05:44:57;24.15;;;6.95;;
23720;SDS011;42950;52.134;5.578;2023-08-01T05:47:23;14.90;;;6.20;;
23720;SDS011;42950;52.134;5.578;2023-08-01T05:49:48;18.95;;;7.00;;
23720;SDS011;42950;52.134;5.578;2023-08-01T05:52:14;17.05;;;6.60;;
23720;SDS011;42950;52.134;5.578;2023-08-01T05:54:40;16.80;;;6.63;;
23720;SDS011;42950;52.134;5.578;2023-08-01T05:57:05;20.55;;;6.88;;
23720;SDS011;42950;52.134;5.578;2023-08-01T05:59:32;21.48;;;6.68;;
23720;SDS011;42950;52.134;5.578;2023-08-01T06:01:57;23.00;;;6.28;;
23720;SDS011;42950;52.134;5.578;2023-08-01T06:04:23;16.48;;;6.40;;
23720;SDS011;42950;52.134;5.578;2023-08-01T06:06:49;19.02;;;6.47;;
23720;SDS011;42950;52.134;5.578;2023-08-01T06:09:14;18.88;;;6.38;;
23720;SDS011;42950;52.134;5.578;2023-08-01T06:11:40;17.70;;;5.78;;
23720;SDS011;42950;52.134;5.578;2023-08-01T06:14:06;15.93;;;6.40;;
23720;SDS011;42950;52.134;5.578;2023-08-01T06:16:31;15.65;;;5.95;;
23720;SDS011;42950;52.134;5.578;2023-08-01T06:18:58;16.65;;;5.85;;
23720;SDS011;42950;52.134;5.578;2023-08-01T06:21:25;16.27;;;5.93;;
23720;SDS011;42950;52.134;5.578;2023-08-01T06:23:51;20.63;;;5.95;;
23720;SDS011;42950;52.134;5.578;2023-08-01T06:26:16;11.10;;;5.22;;
23720;SDS011;42950;52.134;5.578;2023-08-01T06:28:42;17.08;;;5.82;;
23720;SDS011;42950;52.134;5.578;2023-08-01T06:31:08;16.80;;;5.60;;
23720;SDS011;42950;52.134;5.578;2023-08-01T06:33:33;19.13;;;5.13;;
23720;SDS011;42950;52.134;5.578;2023-08-01T06:35:59;16.85;;;5.20;;
23720;SDS011;42950;52.134;5.578;2023-08-01T06:38:25;16.77;;;5.85;;
23720;SDS011;42950;52.134;5.578;2023-08-01T06:40:52;17.17;;;5.28;;
23720;SDS011;42950;52.134;5.578;2023-08-01T06:43:18;14.27;;;5.15;;
23720;SDS011;42950;52.134;5.578;2023-08-01T06:45:43;16.23;;;4.82;;
23720;SDS011;42950;52.134;5.578;2023-08-01T06:48:09;14.82;;;4.95;;
23720;SDS011;42950;52.134;5.578;2023-08-01T06:50:34;17.35;;;5.57;;
23720;SDS011;42950;52.134;5.578;2023-08-01T06:53:01;17.55;;;5.13;;
23720;SDS011;42950;52.134;5.578;2023-08-01T06:55:27;10.32;;;4.57;;
23720;SDS011;42950;52.134;5.578;2023-08-01T06:57:53;15.00;;;4.38;;
23720;SDS011;42950;52.134;5.578;2023-08-01T07:00:19;12.88;;;4.80;;
23720;SDS011;42950;52.134;5.578;2023-08-01T07:02:44;16.55;;;4.50;;
23720;SDS011;42950;52.134;5.578;2023-08-01T07:05:10;16.08;;;4.68;;
23720;SDS011;42950;52.134;5.578;2023-08-01T07:07:36;13.48;;;4.15;;
23720;SDS011;42950;52.134;5.578;2023-08-01T07:10:01;14.13;;;4.05;;
23720;SDS011;42950;52.134;5.578;2023-08-01T07:12:27;17.85;;;4.78;;
23720;SDS011;42950;52.134;5.578;2023-08-01T07:14:54;13.65;;;4.07;;
23720;SDS011;42950;52.134;5.578;2023-08-01T07:17:19;14.65;;;4.13;;
23720;SDS011;42950;52.134;5.578;2023-08-01T07:19:45;13.23;;;4.03;;
23720;SDS011;42950;52.134;5.578;2023-08-01T07:22:11;10.98;;;3.75;;
23720;SDS011;42950;52.134;5.578;2023-08-01T07:24:36;11.15;;;3.22;;
23720;SDS011;42950;52.134;5.578;2023-08-01T07:27:02;13.82;;;3.58;;
23720;SDS011;42950;52.134;5.578;2023-08-01T07:29:28;10.95;;;3.60;;
23720;SDS011;42950;52.134;5.578;2023-08-01T07:31:53;12.05;;;3.78;;
23720;SDS011;42950;52.134;5.578;2023-08-01T07:34:19;15.50;;;4.07;;
23720;SDS011;42950;52.134;5.578;2023-08-01T07:36:46;7.55;;;3.25;;
23720;SDS011;42950;52.134;5.578;2023-08-01T07:39:13;11.05;;;3.53;;
23720;SDS011;42950;52.134;5.578;2023-08-01T07:41:39;10.13;;;3.30;;
23720;SDS011;42950;52.134;5.578;2023-08-01T07:44:06;12.02;;;3.30;;
23720;SDS011;42950;52.134;5.578;2023-08-01T07:46:31;12.07;;;3.17;;
23720;SDS011;42950;52.134;5.578;2023-08-01T07:48:58;8.27;;;2.60;;
23720;SDS011;42950;52.134;5.578;2023-08-01T07:51:25;9.30;;;2.92;;
23720;SDS011;42950;52.134;5.578;2023-08-01T07:53:51;7.10;;;2.45;;
23720;SDS011;42950;52.134;5.578;2023-08-01T07:56:18;6.13;;;2.53;;
23720;SDS011;42950;52.134;5.578;2023-08-01T07:58:45;10.43;;;3.30;;
23720;SDS011;42950;52.134;5.578;2023-08-01T08:01:11;8.55;;;3.08;;
23720;SDS011;42950;52.134;5.578;2023-08-01T08:03:36;10.13;;;3.10;;
23720;SDS011;42950;52.134;5.578;2023-08-01T08:06:02;8.13;;;2.90;;
23720;SDS011;42950;52.134;5.578;2023-08-01T08:08:29;10.25;;;2.90;;
23720;SDS011;42950;52.134;5.578;2023-08-01T08:10:56;9.35;;;3.25;;
23720;SDS011;42950;52.134;5.578;2023-08-01T08:13:22;8.80;;;3.03;;
23720;SDS011;42950;52.134;5.578;2023-08-01T08:15:49;7.68;;;2.90;;
23720;SDS011;42950;52.134;5.578;2023-08-01T08:18:14;8.75;;;2.80;;
23720;SDS011;42950;52.134;5.578;2023-08-01T08:20:43;10.60;;;3.33;;
23720;SDS011;42950;52.134;5.578;2023-08-01T08:23:10;10.88;;;3.35;;
23720;SDS011;42950;52.134;5.578;2023-08-01T08:25:39;11.25;;;3.47;;
23720;SDS011;42950;52.134;5.578;2023-08-01T08:28:05;12.32;;;3.83;;
23720;SDS011;42950;52.134;5.578;2023-08-01T08:30:31;7.93;;;3.08;;
23720;SDS011;42950;52.134;5.578;2023-08-01T08:32:57;8.48;;;3.20;;
23720;SDS011;42950;52.134;5.578;2023-08-01T08:35:25;9.55;;;3.08;;
23720;SDS011;42950;52.134;5.578;2023-08-01T08:37:51;10.23;;;3.08;;
23720;SDS011;42950;52.134;5.578;2023-08-01T08:40:17;9.82;;;2.83;;
23720;SDS011;42950;52.134;5.578;2023-08-01T08:42:42;9.60;;;2.42;;
23720;SDS011;42950;52.134;5.578;2023-08-01T08:45:10;8.25;;;2.83;;
23720;SDS011;42950;52.134;5.578;2023-08-01T08:47:38;6.43;;;2.10;;
23720;SDS011;42950;52.134;5.578;2023-08-01T08:50:07;3.72;;;2.10;;
23720;SDS011;42950;52.134;5.578;2023-08-01T08:52:35;7.53;;;2.28;;
23720;SDS011;42950;52.134;5.578;2023-08-01T08:55:02;4.80;;;1.95;;
23720;SDS011;42950;52.134;5.578;2023-08-01T08:57:28;4.10;;;1.85;;
23720;SDS011;42950;52.134;5.578;2023-08-01T08:59:55;7.35;;;1.90;;
23720;SDS011;42950;52.134;5.578;2023-08-01T09:02:22;5.00;;;1.75;;
23720;SDS011;42950;52.134;5.578;2023-08-01T09:04:48;6.57;;;1.80;;
23720;SDS011;42950;52.134;5.578;2023-08-01T09:07:14;6.53;;;1.70;;
23720;SDS011;42950;52.134;5.578;2023-08-01T09:09:44;4.57;;;1.70;;
23720;SDS011;42950;52.134;5.578;2023-08-01T09:12:11;8.63;;;1.80;;
23720;SDS011;42950;52.134;5.578;2023-08-01T09:14:37;6.43;;;1.70;;
23720;SDS011;42950;52.134;5.578;2023-08-01T09:17:07;5.47;;;1.70;;
23720;SDS011;42950;52.134;5.578;2023-08-01T09:19:35;5.25;;;1.95;;
23720;SDS011;42950;52.134;5.578;2023-08-01T09:22:01;6.35;;;1.73;;
23720;SDS011;42950;52.134;5.578;2023-08-01T09:24:27;7.82;;;2.10;;
23720;SDS011;42950;52.134;5.578;2023-08-01T09:27:01;4.78;;;1.75;;
23720;SDS011;42950;52.134;5.578;2023-08-01T09:29:29;8.10;;;1.90;;
23720;SDS011;42950;52.134;5.578;2023-08-01T09:31:57;5.75;;;1.85;;
23720;SDS011;42950;52.134;5.578;2023-08-01T09:34:26;7.03;;;2.53;;
23720;SDS011;42950;52.134;5.578;2023-08-01T09:36:59;8.20;;;1.80;;
23720;SDS011;42950;52.134;5.578;2023-08-01T09:39:25;10.98;;;1.90;;
23720;SDS011;42950;52.134;5.578;2023-08-01T09:41:58;6.90;;;2.20;;
23720;SDS011;42950;52.134;5.578;2023-08-01T09:44:26;7.88;;;2.00;;
23720;SDS011;42950;52.134;5.578;2023-08-01T09:49:24;9.98;;;2.10;;
23720;SDS011;42950;52.134;5.578;2023-08-01T09:51:52;6.07;;;1.70;;
23720;SDS011;42950;52.134;5.578;2023-08-01T09:54:17;5.35;;;2.03;;
23720;SDS011;42950;52.134;5.578;2023-08-01T09:56:44;4.93;;;1.83;;
23720;SDS011;42950;52.134;5.578;2023-08-01T09:59:11;6.20;;;1.75;;
23720;SDS011;42950;52.134;5.578;2023-08-01T10:01:37;5.43;;;2.00;;
23720;SDS011;42950;52.134;5.578;2023-08-01T10:04:05;4.20;;;1.85;;
23720;SDS011;42950;52.134;5.578;2023-08-01T10:06:33;5.82;;;2.13;;
23720;SDS011;42950;52.134;5.578;2023-08-01T10:09:02;7.85;;;2.13;;
23720;SDS011;42950;52.134;5.578;2023-08-01T10:11:29;7.20;;;2.13;;
23720;SDS011;42950;52.134;5.578;2023-08-01T10:13:58;9.23;;;2.60;;
23720;SDS011;42950;52.134;5.578;2023-08-01T10:16:29;9.93;;;2.85;;
23720;SDS011;42950;52.134;5.578;2023-08-01T10:18:55;13.30;;;2.78;;
23720;SDS011;42950;52.134;5.578;2023-08-01T10:21:24;7.75;;;2.55;;
23720;SDS011;42950;52.134;5.578;2023-08-01T10:23:53;10.05;;;2.65;;
23720;SDS011;42950;52.134;5.578;2023-08-01T10:26:20;10.10;;;2.22;;
23720;SDS011;42950;52.134;5.578;2023-08-01T10:28:50;7.57;;;2.08;;
23720;SDS011;42950;52.134;5.578;2023-08-01T10:31:17;8.63;;;2.05;;
23720;SDS011;42950;52.134;5.578;2023-08-01T10:33:44;9.10;;;2.30;;
23720;SDS011;42950;52.134;5.578;2023-08-01T10:36:16;5.38;;;1.80;;
23720;SDS011;42950;52.134;5.578;2023-08-01T10:38:46;4.85;;;1.92;;
23720;SDS011;42950;52.134;5.578;2023-08-01T10:41:26;8.55;;;1.98;;
23720;SDS011;42950;52.134;5.578;2023-08-01T10:44:14;7.35;;;2.10;;
23720;SDS011;42950;52.134;5.578;2023-08-01T10:46:51;6.20;;;1.50;;
23720;SDS011;42950;52.134;5.578;2023-08-01T10:49:19;8.80;;;1.60;;
23720;SDS011;42950;52.134;5.578;2023-08-01T10:51:48;7.72;;;1.80;;
23720;SDS011;42950;52.134;5.578;2023-08-01T10:54:23;4.60;;;1.60;;
23720;SDS011;42950;52.134;5.578;2023-08-01T10:56:51;7.60;;;1.55;;
23720;SDS011;42950;52.134;5.578;2023-08-01T10:59:18;5.30;;;1.65;;
23720;SDS011;42950;52.134;5.578;2023-08-01T11:01:49;8.50;;;1.80;;
23720;SDS011;42950;52.134;5.578;2023-08-01T11:04:17;7.13;;;1.70;;
23720;SDS011;42950;52.134;5.578;2023-08-01T11:06:48;5.18;;;1.48;;
23720;SDS011;42950;52.134;5.578;2023-08-01T11:09:20;4.30;;;1.40;;
23720;SDS011;42950;52.134;5.578;2023-08-01T11:11:51;4.22;;;1.45;;
23720;SDS011;42950;52.134;5.578;2023-08-01T11:14:28;5.00;;;1.27;;
23720;SDS011;42950;52.134;5.578;2023-08-01T11:16:55;7.78;;;1.70;;
23720;SDS011;42950;52.134;5.578;2023-08-01T11:19:28;4.75;;;1.48;;
23720;SDS011;42950;52.134;5.578;2023-08-01T11:21:56;7.75;;;1.10;;
23720;SDS011;42950;52.134;5.578;2023-08-01T11:24:23;8.50;;;1.55;;
23720;SDS011;42950;52.134;5.578;2023-08-01T11:26:50;5.75;;;1.17;;
23720;SDS011;42950;52.134;5.578;2023-08-01T11:29:18;6.28;;;1.35;;
23720;SDS011;42950;52.134;5.578;2023-08-01T11:32:00;5.60;;;1.52;;
23720;SDS011;42950;52.134;5.578;2023-08-01T11:34:26;6.20;;;1.42;;
23720;SDS011;42950;52.134;5.578;2023-08-01T11:36:52;6.93;;;1.65;;
23720;SDS011;42950;52.134;5.578;2023-08-01T11:39:19;6.10;;;1.50;;
23720;SDS011;42950;52.134;5.578;2023-08-01T11:41:47;4.25;;;1.27;;
23720;SDS011;42950;52.134;5.578;2023-08-01T11:44:13;5.47;;;1.27;;
23720;SDS011;42950;52.134;5.578;2023-08-01T11:46:40;4.63;;;1.38;;
23720;SDS011;42950;52.134;5.578;2023-08-01T11:49:06;7.05;;;1.67;;
23720;SDS011;42950;52.134;5.578;2023-08-01T11:51:39;5.65;;;1.80;;
23720;SDS011;42950;52.134;5.578;2023-08-01T11:54:06;8.50;;;1.70;;
23720;SDS011;42950;52.134;5.578;2023-08-01T11:56:33;5.55;;;1.75;;
23720;SDS011;42950;52.134;5.578;2023-08-01T11:58:59;5.63;;;1.63;;
23720;SDS011;42950;52.134;5.578;2023-08-01T12:01:37;7.15;;;1.30;;
23720;SDS011;42950;52.134;5.578;2023-08-01T12:04:03;5.85;;;1.33;;
23720;SDS011;42950;52.134;5.578;2023-08-01T12:06:31;5.03;;;1.50;;
23720;SDS011;42950;52.134;5.578;2023-08-01T12:09:06;4.07;;;1.52;;
23720;SDS011;42950;52.134;5.578;2023-08-01T12:11:42;3.80;;;1.10;;
23720;SDS011;42950;52.134;5.578;2023-08-01T12:14:13;5.45;;;1.65;;
23720;SDS011;42950;52.134;5.578;2023-08-01T12:16:46;4.53;;;1.55;;
23720;SDS011;42950;52.134;5.578;2023-08-01T12:19:18;4.70;;;1.40;;
23720;SDS011;42950;52.134;5.578;2023-08-01T12:21:44;6.50;;;2.03;;
23720;SDS011;42950;52.134;5.578;2023-08-01T12:24:10;7.00;;;1.80;;
23720;SDS011;42950;52.134;5.578;2023-08-01T12:26:36;6.72;;;1.95;;
23720;SDS011;42950;52.134;5.578;2023-08-01T12:29:02;4.60;;;1.50;;
23720;SDS011;42950;52.134;5.578;2023-08-01T12:31:28;6.03;;;1.50;;
23720;SDS011;42950;52.134;5.578;2023-08-01T12:33:54;8.43;;;1.77;;
23720;SDS011;42950;52.134;5.578;2023-08-01T12:36:19;7.60;;;1.65;;
23720;SDS011;42950;52.134;5.578;2023-08-01T12:38:45;6.90;;;1.98;;
23720;SDS011;42950;52.134;5.578;2023-08-01T12:41:11;6.07;;;1.73;;
23720;SDS011;42950;52.134;5.578;2023-08-01T12:43:37;8.18;;;2.10;;
23720;SDS011;42950;52.134;5.578;2023-08-01T12:46:03;9.07;;;2.30;;
23720;SDS011;42950;52.134;5.578;2023-08-01T12:48:29;6.72;;;1.90;;
23720;SDS011;42950;52.134;5.578;2023-08-01T12:50:55;7.28;;;1.95;;
23720;SDS011;42950;52.134;5.578;2023-08-01T12:53:21;6.20;;;1.63;;
23720;SDS011;42950;52.134;5.578;2023-08-01T12:55:48;6.53;;;2.00;;
23720;SDS011;42950;52.134;5.578;2023-08-01T12:58:15;9.00;;;2.47;;
23720;SDS011;42950;52.134;5.578;2023-08-01T13:00:42;6.05;;;2.10;;
23720;SDS011;42950;52.134;5.578;2023-08-01T13:03:09;7.78;;;1.92;;
23720;SDS011;42950;52.134;5.578;2023-08-01T13:05:36;8.82;;;1.90;;
23720;SDS011;42950;52.134;5.578;2023-08-01T13:08:04;6.90;;;1.98;;
23720;SDS011;42950;52.134;5.578;2023-08-01T13:10:30;8.95;;;1.90;;
23720;SDS011;42950;52.134;5.578;2023-08-01T13:13:00;5.43;;;1.35;;
23720;SDS011;42950;52.134;5.578;2023-08-01T13:15:28;6.70;;;1.40;;
23720;SDS011;42950;52.134;5.578;2023-08-01T13:17:55;4.95;;;1.35;;
23720;SDS011;42950;52.134;5.578;2023-08-01T13:20:21;4.10;;;1.55;;
23720;SDS011;42950;52.134;5.578;2023-08-01T13:22:48;3.17;;;1.42;;
23720;SDS011;42950;52.134;5.578;2023-08-01T13:25:16;5.35;;;1.40;;
23720;SDS011;42950;52.134;5.578;2023-08-01T13:27:43;8.13;;;1.70;;
23720;SDS011;42950;52.134;5.578;2023-08-01T13:30:09;7.70;;;2.05;;
23720;SDS011;42950;52.134;5.578;2023-08-01T13:32:39;6.32;;;1.80;;
23720;SDS011;42950;52.134;5.578;2023-08-01T13:35:05;5.70;;;1.88;;
23720;SDS011;42950;52.134;5.578;2023-08-01T13:37:30;8.40;;;2.00;;
23720;SDS011;42950;52.134;5.578;2023-08-01T13:39:57;9.73;;;2.30;;
23720;SDS011;42950;52.134;5.578;2023-08-01T13:42:23;9.23;;;2.20;;
23720;SDS011;42950;52.134;5.578;2023-08-01T13:44:49;6.13;;;2.10;;
23720;SDS011;42950;52.134;5.578;2023-08-01T13:47:14;8.20;;;2.42;;
23720;SDS011;42950;52.134;5.578;2023-08-01T13:49:40;6.88;;;2.20;;
23720;SDS011;42950;52.134;5.578;2023-08-01T13:52:06;7.30;;;2.45;;
23720;SDS011;42950;52.134;5.578;2023-08-01T13:54:32;8.05;;;2.20;;
23720;SDS011;42950;52.134;5.578;2023-08-01T13:56:57;7.40;;;2.03;;
23720;SDS011;42950;52.134;5.578;2023-08-01T13:59:23;6.55;;;1.98;;
23720;SDS011;42950;52.134;5.578;2023-08-01T14:01:49;9.20;;;1.95;;
23720;SDS011;42950;52.134;5.578;2023-08-01T14:04:14;7.65;;;2.08;;
23720;SDS011;42950;52.134;5.578;2023-08-01T14:06:40;10.70;;;2.00;;
23720;SDS011;42950;52.134;5.578;2023-08-01T14:09:07;9.95;;;2.13;;
23720;SDS011;42950;52.134;5.578;2023-08-01T14:11:37;8.50;;;1.90;;
23720;SDS011;42950;52.134;5.578;2023-08-01T14:14:04;8.20;;;1.95;;
23720;SDS011;42950;52.134;5.578;2023-08-01T14:16:30;7.93;;;2.13;;
23720;SDS011;42950;52.134;5.578;2023-08-01T14:18:57;7.78;;;2.13;;
23720;SDS011;42950;52.134;5.578;2023-08-01T14:21:33;12.55;;;2.42;;
23720;SDS011;42950;52.134;5.578;2023-08-01T14:23:59;5.63;;;1.90;;
23720;SDS011;42950;52.134;5.578;2023-08-01T14:26:25;8.25;;;1.95;;
23720;SDS011;42950;52.134;5.578;2023-08-01T14:28:51;7.50;;;2.20;;
23720;SDS011;42950;52.134;5.578;2023-08-01T14:31:17;4.65;;;1.58;;
23720;SDS011;42950;52.134;5.578;2023-08-01T14:33:43;7.45;;;1.70;;
23720;SDS011;42950;52.134;5.578;2023-08-01T14:36:09;4.68;;;1.98;;
23720;SDS011;42950;52.134;5.578;2023-08-01T14:38:37;6.63;;;2.03;;
23720;SDS011;42950;52.134;5.578;2023-08-01T14:41:05;7.50;;;1.70;;